createdAt,value
2017-04-12T00:01:17.663Z,0
2017-04-12T00:02:39.417Z,0
2017-04-12T00:04:01.942Z,0
2017-04-12T00:05:23.749Z,0
2017-04-12T00:06:45.881Z,0
2017-04-12T00:08:08.021Z,0
2017-04-12T00:09:29.549Z,0
2017-04-12T00:10:51.067Z,0
2017-04-12T00:12:12.849Z,0
2017-04-12T00:13:34.999Z,0
2017-04-12T00:14:56.497Z,0
2017-04-12T00:16:18.339Z,0
2017-04-12T00:17:40.798Z,0
2017-04-12T00:19:02.920Z,0
2017-04-12T00:20:25.399Z,0
2017-04-12T00:21:47.254Z,0
2017-04-12T00:23:09.395Z,0
2017-04-12T00:24:30.905Z,0
2017-04-12T00:25:52.489Z,0
2017-04-12T00:27:14.364Z,0
2017-04-12T00:28:36.188Z,0
2017-04-12T00:29:57.701Z,0
2017-04-12T00:31:19.531Z,0
2017-04-12T00:32:41.676Z,0
2017-04-12T00:34:03.500Z,0
2017-04-12T00:35:25.669Z,0
2017-04-12T00:36:47.840Z,0
2017-04-12T00:38:09.746Z,0
2017-04-12T00:39:32.155Z,0
2017-04-12T00:40:53.702Z,0
2017-04-12T00:42:15.230Z,0
2017-04-12T00:43:37.717Z,0
2017-04-12T00:44:59.784Z,0
2017-04-12T00:46:21.762Z,0
2017-04-12T00:47:43.366Z,0
2017-04-12T00:49:05.553Z,0
2017-04-12T00:50:27.322Z,0
2017-04-12T00:51:48.839Z,0
2017-04-12T00:53:11.049Z,0
2017-04-12T00:54:33.209Z,0
2017-04-12T00:55:55.978Z,0
2017-04-12T00:57:18.108Z,0
2017-04-12T00:58:39.919Z,0
2017-04-12T01:00:01.774Z,0
2017-04-12T01:01:23.842Z,0
2017-04-12T01:02:45.761Z,0
2017-04-12T01:04:07.946Z,0
2017-04-12T01:05:30.089Z,0
2017-04-12T01:06:51.831Z,0
2017-04-12T01:08:14.029Z,0
2017-04-12T01:09:35.526Z,0
2017-04-12T01:10:57.359Z,0
2017-04-12T01:12:19.438Z,0
2017-04-12T01:13:41.579Z,0
2017-04-12T01:15:03.718Z,0
2017-04-12T01:16:25.925Z,0
2017-04-12T01:17:47.699Z,0
2017-04-12T01:19:09.839Z,0
2017-04-12T01:20:31.809Z,0
2017-04-12T01:21:54.252Z,0
2017-04-12T01:23:16.105Z,0
2017-04-12T01:24:37.984Z,0
2017-04-12T01:26:00.177Z,0
2017-04-12T01:27:21.725Z,0
2017-04-12T01:28:44.188Z,0
2017-04-12T01:30:06.325Z,0
2017-04-12T01:31:28.774Z,0
2017-04-12T01:32:50.649Z,0
2017-04-12T01:34:13.070Z,0
2017-04-12T01:35:34.893Z,0
2017-04-12T01:36:56.703Z,0
2017-04-12T01:38:18.508Z,0
2017-04-12T01:39:40.629Z,0
2017-04-12T01:41:01.505Z,0
2017-04-12T01:42:23.658Z,0
2017-04-12T01:43:45.887Z,0
2017-04-12T01:45:08.312Z,0
2017-04-12T01:46:30.139Z,0
2017-04-12T01:47:51.729Z,0
2017-04-12T01:49:13.873Z,0
2017-04-12T01:50:36.363Z,0
2017-04-12T01:51:58.202Z,0
2017-04-12T01:53:20.352Z,0
2017-04-12T01:54:41.544Z,0
2017-04-12T01:56:03.871Z,0
2017-04-12T01:57:25.789Z,0
2017-04-12T01:58:47.708Z,0
2017-04-12T02:00:09.578Z,0
2017-04-12T02:01:32.297Z,0
2017-04-12T02:02:54.425Z,0
2017-04-12T02:04:16.268Z,0
2017-04-12T02:05:38.559Z,0
2017-04-12T02:07:00.931Z,0
2017-04-12T02:08:22.749Z,0
2017-04-12T02:09:45.066Z,0
2017-04-12T02:11:06.877Z,0
2017-04-12T02:12:29.288Z,0
2017-04-12T02:13:51.102Z,0
2017-04-12T02:15:13.237Z,0
2017-04-12T02:16:34.726Z,0
2017-04-12T02:17:57.161Z,0
2017-04-12T02:19:19.426Z,0
2017-04-12T02:20:41.057Z,0
2017-04-12T02:22:03.209Z,0
2017-04-12T02:23:25.323Z,0
2017-04-12T02:24:46.530Z,0
2017-04-12T02:26:08.147Z,0
2017-04-12T02:27:30.003Z,0
2017-04-12T02:28:51.849Z,0
2017-04-12T02:30:13.689Z,0
2017-04-12T02:31:35.828Z,0
2017-04-12T02:32:57.698Z,0
2017-04-12T02:34:19.774Z,0
2017-04-12T02:35:41.590Z,0
2017-04-12T02:37:03.421Z,0
2017-04-12T02:38:25.571Z,0
2017-04-12T02:39:47.878Z,0
2017-04-12T02:41:09.708Z,0
2017-04-12T02:42:31.539Z,0
2017-04-12T02:43:53.410Z,0
2017-04-12T02:45:16.255Z,0
2017-04-12T02:46:38.122Z,0
2017-04-12T02:48:00.408Z,0
2017-04-12T02:49:22.578Z,0
2017-04-12T02:50:44.743Z,0
2017-04-12T02:52:06.582Z,0
2017-04-12T02:53:28.521Z,0
2017-04-12T02:54:51.005Z,0
2017-04-12T02:56:13.877Z,0
2017-04-12T02:57:36.057Z,0
2017-04-12T02:58:57.717Z,0
2017-04-12T03:00:19.558Z,0
2017-04-12T03:01:42.345Z,0
2017-04-12T03:03:04.566Z,0
2017-04-12T03:04:26.088Z,0
2017-04-12T03:05:48.097Z,0
2017-04-12T03:07:10.168Z,0
2017-04-12T03:08:32.011Z,0
2017-04-12T03:09:54.164Z,0
2017-04-12T03:11:16.631Z,0
2017-04-12T03:12:38.503Z,0
2017-04-12T03:14:00.743Z,0
2017-04-12T03:15:22.354Z,0
2017-04-12T03:16:44.165Z,0
2017-04-12T03:18:06.147Z,0
2017-04-12T03:19:28.337Z,0
2017-04-12T03:20:50.585Z,0
2017-04-12T03:22:12.259Z,0
2017-04-12T03:23:34.135Z,0
2017-04-12T03:24:56.066Z,0
2017-04-12T03:26:17.968Z,0
2017-04-12T03:27:40.199Z,0
2017-04-12T03:29:01.638Z,0
2017-04-12T03:30:23.157Z,0
2017-04-12T03:31:44.743Z,0
2017-04-12T03:33:06.570Z,0
2017-04-12T03:34:28.690Z,0
2017-04-12T03:35:50.518Z,0
2017-04-12T03:37:12.346Z,0
2017-04-12T03:38:34.818Z,0
2017-04-12T03:39:56.981Z,0
2017-04-12T03:41:18.800Z,0
2017-04-12T03:42:40.966Z,0
2017-04-12T03:44:02.175Z,0
2017-04-12T03:45:24.047Z,0
2017-04-12T03:46:45.532Z,0
2017-04-12T03:48:06.711Z,0
2017-04-12T03:49:27.903Z,0
2017-04-12T03:50:50.059Z,0
2017-04-12T03:52:12.211Z,0
2017-04-12T03:53:34.701Z,0
2017-04-12T03:54:56.260Z,0
2017-04-12T03:56:18.379Z,0
2017-04-12T03:57:40.857Z,0
2017-04-12T03:59:02.666Z,0
2017-04-12T04:00:24.485Z,4
2017-04-12T04:01:47.213Z,4
2017-04-12T04:03:08.420Z,4
2017-04-12T04:04:30.445Z,4
2017-04-12T04:05:52.290Z,4
2017-04-12T04:07:14.096Z,4
2017-04-12T04:08:35.930Z,8
2017-04-12T04:09:58.067Z,12
2017-04-12T04:11:19.889Z,12
2017-04-12T04:12:41.965Z,16
2017-04-12T04:14:03.794Z,20
2017-04-12T04:15:25.663Z,24
2017-04-12T04:16:47.987Z,32
2017-04-12T04:18:10.126Z,36
2017-04-12T04:19:31.945Z,44
2017-04-12T04:20:53.753Z,52
2017-04-12T04:22:15.262Z,60
2017-04-12T04:23:37.025Z,68
2017-04-12T04:24:59.537Z,80
2017-04-12T04:26:21.137Z,96
2017-04-12T04:27:43.079Z,112
2017-04-12T04:29:05.469Z,132
2017-04-12T04:30:27.310Z,148
2017-04-12T04:31:49.457Z,168
2017-04-12T04:33:10.697Z,196
2017-04-12T04:34:32.443Z,232
2017-04-12T04:35:53.947Z,268
2017-04-12T04:37:15.517Z,288
2017-04-12T04:38:37.047Z,280
2017-04-12T04:39:59.117Z,272
2017-04-12T04:41:21.696Z,276
2017-04-12T04:42:43.817Z,180
2017-04-12T04:44:05.959Z,212
2017-04-12T04:45:28.028Z,236
2017-04-12T04:46:49.947Z,316
2017-04-12T04:48:11.878Z,432
2017-04-12T04:49:33.762Z,596
2017-04-12T04:50:55.829Z,664
2017-04-12T04:52:17.688Z,712
2017-04-12T04:53:39.566Z,764
2017-04-12T04:55:02.149Z,736
2017-04-12T04:56:24.674Z,588
2017-04-12T04:57:46.508Z,408
2017-04-12T04:59:08.379Z,464
2017-04-12T05:00:30.217Z,576
2017-04-12T05:01:51.979Z,544
2017-04-12T05:03:13.797Z,484
2017-04-12T05:04:35.304Z,552
2017-04-12T05:05:57.123Z,576
2017-04-12T05:07:19.226Z,824
2017-04-12T05:08:40.168Z,1080
2017-04-12T05:10:02.740Z,908
2017-04-12T05:11:24.918Z,784
2017-04-12T05:12:46.997Z,912
2017-04-12T05:14:09.171Z,844
2017-04-12T05:15:31.058Z,1448
2017-04-12T05:16:53.545Z,1684
2017-04-12T05:18:15.880Z,1756
2017-04-12T05:19:38.458Z,1976
2017-04-12T05:21:00.648Z,2084
2017-04-12T05:22:22.160Z,2124
2017-04-12T05:23:44.548Z,2136
2017-04-12T05:25:06.379Z,2180
2017-04-12T05:26:28.561Z,2388
2017-04-12T05:27:50.686Z,2572
2017-04-12T05:29:12.591Z,2644
2017-04-12T05:30:34.748Z,2688
2017-04-12T05:31:56.555Z,2696
2017-04-12T05:33:18.395Z,2592
2017-04-12T05:34:40.197Z,2588
2017-04-12T05:36:02.348Z,2604
2017-04-12T05:37:24.595Z,2512
2017-04-12T05:38:46.535Z,2640
2017-04-12T05:40:08.899Z,2748
2017-04-12T05:41:31.047Z,2808
2017-04-12T05:42:52.550Z,2724
2017-04-12T05:44:14.720Z,3224
2017-04-12T05:45:36.528Z,3472
2017-04-12T05:46:58.361Z,3796
2017-04-12T05:48:20.206Z,3644
2017-04-12T05:49:42.338Z,4000
2017-04-12T05:51:04.472Z,3952
2017-04-12T05:52:27.246Z,3984
2017-04-12T05:53:49.195Z,4136
2017-04-12T05:55:11.136Z,4172
2017-04-12T05:56:32.608Z,3856
2017-04-12T05:57:55.051Z,3896
2017-04-12T05:59:17.177Z,4500
2017-04-12T06:00:39.669Z,4712
2017-04-12T06:02:01.749Z,4920
2017-04-12T06:03:23.563Z,5312
2017-04-12T06:04:45.094Z,5180
2017-04-12T06:06:06.908Z,4836
2017-04-12T06:07:29.037Z,5376
2017-04-12T06:08:51.183Z,6080
2017-04-12T06:10:12.696Z,6732
2017-04-12T06:11:34.218Z,7464
2017-04-12T06:12:56.312Z,8672
2017-04-12T06:14:18.187Z,8296
2017-04-12T06:15:39.711Z,9300
2017-04-12T06:17:02.200Z,9948
2017-04-12T06:18:24.598Z,9416
2017-04-12T06:19:46.434Z,9728
2017-04-12T06:21:08.456Z,9028
2017-04-12T06:22:30.280Z,7936
2017-04-12T06:23:52.746Z,8528
2017-04-12T06:25:15.049Z,9232
2017-04-12T06:26:36.906Z,9840
2017-04-12T06:27:58.738Z,11152
2017-04-12T06:29:20.906Z,11716
2017-04-12T06:30:42.788Z,12468
2017-04-12T06:32:04.316Z,13244
2017-04-12T06:33:25.526Z,13904
2017-04-12T06:34:47.642Z,17792
2017-04-12T06:36:09.473Z,19008
2017-04-12T06:37:31.833Z,16192
2017-04-12T06:38:54.442Z,11496
2017-04-12T06:40:16.851Z,12624
2017-04-12T06:41:39.319Z,9492
2017-04-12T06:43:01.159Z,8108
2017-04-12T06:44:22.398Z,6864
2017-04-12T06:45:44.297Z,6984
2017-04-12T06:47:06.753Z,7920
2017-04-12T06:48:29.596Z,8692
2017-04-12T06:49:51.852Z,9572
2017-04-12T06:51:13.981Z,8436
2017-04-12T06:52:35.803Z,8852
2017-04-12T06:53:58.077Z,8572
2017-04-12T06:55:20.265Z,8540
2017-04-12T06:56:42.413Z,8668
2017-04-12T06:58:04.342Z,7808
2017-04-12T06:59:26.258Z,9292
2017-04-12T07:00:48.090Z,8688
2017-04-12T07:02:10.955Z,6272
2017-04-12T07:03:32.879Z,7056
2017-04-12T07:04:54.738Z,8348
2017-04-12T07:06:16.269Z,7288
2017-04-12T07:07:39.110Z,8536
2017-04-12T07:09:01.006Z,9796
2017-04-12T07:10:22.844Z,8024
2017-04-12T07:11:44.994Z,9376
2017-04-12T07:13:07.759Z,10792
2017-04-12T07:14:29.677Z,8432
2017-04-12T07:15:51.814Z,7332
2017-04-12T07:17:13.789Z,8920
2017-04-12T07:18:36.018Z,8988
2017-04-12T07:19:57.961Z,6532
2017-04-12T07:21:20.158Z,5060
2017-04-12T07:22:42.751Z,5756
2017-04-12T07:24:05.589Z,7176
2017-04-12T07:25:28.176Z,6288
2017-04-12T07:26:50.008Z,6244
2017-04-12T07:28:11.382Z,7608
2017-04-12T07:29:34.149Z,8412
2017-04-12T07:30:55.653Z,9028
2017-04-12T07:32:16.861Z,8236
2017-04-12T07:33:39.031Z,9880
2017-04-12T07:35:00.788Z,10196
2017-04-12T07:36:22.639Z,10660
2017-04-12T07:37:45.120Z,10516
2017-04-12T07:39:06.951Z,8528
2017-04-12T07:40:28.769Z,7560
2017-04-12T07:41:50.980Z,7476
2017-04-12T07:43:13.114Z,7988
2017-04-12T07:44:35.313Z,7784
2017-04-12T07:45:57.833Z,6524
2017-04-12T07:47:19.998Z,6164
2017-04-12T07:48:42.459Z,6364
2017-04-12T07:50:04.619Z,6992
2017-04-12T07:51:27.170Z,6972
2017-04-12T07:52:49.378Z,7452
2017-04-12T07:54:11.860Z,6080
2017-04-12T07:55:34.326Z,5892
2017-04-12T07:56:56.157Z,6904
2017-04-12T07:58:18.652Z,6896
2017-04-12T07:59:40.488Z,6540
2017-04-12T08:01:02.301Z,7480
2017-04-12T08:02:24.855Z,8680
2017-04-12T08:03:47.024Z,8988
2017-04-12T08:05:09.598Z,8988
2017-04-12T08:06:31.751Z,8556
2017-04-12T08:07:54.195Z,9788
2017-04-12T08:09:16.008Z,8584
2017-04-12T08:10:37.916Z,8060
2017-04-12T08:12:00.067Z,7788
2017-04-12T08:13:22.504Z,8816
2017-04-12T08:14:44.356Z,9844
2017-04-12T08:16:06.285Z,10016
2017-04-12T08:17:28.790Z,10340
2017-04-12T08:18:51.493Z,11884
2017-04-12T08:20:13.319Z,12524
2017-04-12T08:21:35.449Z,14084
2017-04-12T08:22:57.965Z,11508
2017-04-12T08:24:20.078Z,12340
2017-04-12T08:25:41.613Z,10184
2017-04-12T08:27:03.468Z,9848
2017-04-12T08:28:25.639Z,10936
2017-04-12T08:29:48.477Z,8844
2017-04-12T08:31:10.307Z,6948
2017-04-12T08:32:32.476Z,8928
2017-04-12T08:33:54.759Z,6928
2017-04-12T08:35:17.540Z,7860
2017-04-12T08:36:39.799Z,7508
2017-04-12T08:38:01.326Z,6348
2017-04-12T08:39:23.499Z,5380
2017-04-12T08:40:46.210Z,6464
2017-04-12T08:42:08.028Z,5836
2017-04-12T08:43:29.691Z,5948
2017-04-12T08:44:51.876Z,5764
2017-04-12T08:46:14.449Z,6784
2017-04-12T08:47:36.605Z,6868
2017-04-12T08:48:58.123Z,8852
2017-04-12T08:50:19.966Z,10208
2017-04-12T08:51:42.158Z,11340
2017-04-12T08:53:04.381Z,10576
2017-04-12T08:54:26.837Z,10476
2017-04-12T08:55:49.028Z,10140
2017-04-12T08:57:11.427Z,10688
2017-04-12T08:58:32.933Z,11132
2017-04-12T08:59:55.487Z,12120
2017-04-12T09:01:17.375Z,8168
2017-04-12T09:02:39.788Z,6332
2017-04-12T09:04:02.007Z,9200
2017-04-12T09:05:23.525Z,9704
2017-04-12T09:06:44.766Z,10776
2017-04-12T09:08:07.166Z,8488
2017-04-12T09:09:29.338Z,7180
2017-04-12T09:10:51.166Z,5832
2017-04-12T09:12:12.680Z,13020
2017-04-12T09:13:35.396Z,13620
2017-04-12T09:14:57.219Z,13136
2017-04-12T09:16:18.764Z,9488
2017-04-12T09:17:40.983Z,7172
2017-04-12T09:19:03.830Z,9556
2017-04-12T09:20:25.971Z,9844
2017-04-12T09:21:48.154Z,10008
2017-04-12T09:23:10.323Z,10640
2017-04-12T09:24:32.409Z,10684
2017-04-12T09:25:54.618Z,11068
2017-04-12T09:27:17.168Z,7940
2017-04-12T09:28:39.667Z,6664
2017-04-12T09:30:02.515Z,6660
2017-04-12T09:31:24.981Z,5484
2017-04-12T09:32:47.483Z,7620
2017-04-12T09:34:09.384Z,7728
2017-04-12T09:35:31.645Z,9060
2017-04-12T09:36:53.479Z,8176
2017-04-12T09:38:15.629Z,10620
2017-04-12T09:39:37.464Z,10480
2017-04-12T09:40:59.638Z,12152
2017-04-12T09:42:21.227Z,10656
2017-04-12T09:43:43.371Z,6844
2017-04-12T09:45:05.848Z,6160
2017-04-12T09:46:28.393Z,5824
2017-04-12T09:47:50.566Z,5400
2017-04-12T09:49:11.753Z,7020
2017-04-12T09:50:33.591Z,7632
2017-04-12T09:51:56.365Z,7712
2017-04-12T09:53:18.510Z,5396
2017-04-12T09:54:40.359Z,5088
2017-04-12T09:56:02.886Z,6188
2017-04-12T09:57:25.448Z,8356
2017-04-12T09:58:46.972Z,6772
2017-04-12T10:00:09.117Z,8896
2017-04-12T10:01:30.699Z,12460
2017-04-12T10:02:53.125Z,15744
2017-04-12T10:04:14.949Z,10736
2017-04-12T10:05:37.020Z,7756
2017-04-12T10:06:59.840Z,9980
2017-04-12T10:08:22.369Z,14604
2017-04-12T10:09:43.869Z,14420
2017-04-12T10:11:05.686Z,15724
2017-04-12T10:12:27.209Z,10656
2017-04-12T10:13:49.026Z,11064
2017-04-12T10:15:10.891Z,10832
2017-04-12T10:16:33.046Z,7952
2017-04-12T10:17:54.939Z,6208
2017-04-12T10:19:17.361Z,4868
2017-04-12T10:20:39.874Z,4712
2017-04-12T10:22:02.043Z,6492
2017-04-12T10:23:23.887Z,6048
2017-04-12T10:24:46.400Z,4924
2017-04-12T10:26:08.606Z,4404
2017-04-12T10:27:30.133Z,4548
2017-04-12T10:28:51.687Z,5292
2017-04-12T10:30:13.823Z,5468
2017-04-12T10:31:35.969Z,5536
2017-04-12T10:32:57.488Z,5248
2017-04-12T10:34:19.624Z,4488
2017-04-12T10:35:42.071Z,5280
2017-04-12T10:37:03.966Z,6172
2017-04-12T10:38:25.806Z,7304
2017-04-12T10:39:48.268Z,6404
2017-04-12T10:41:10.389Z,7632
2017-04-12T10:42:32.546Z,8208
2017-04-12T10:43:54.064Z,9632
2017-04-12T10:45:15.586Z,11504
2017-04-12T10:46:37.975Z,9484
2017-04-12T10:47:59.809Z,8088
2017-04-12T10:49:21.958Z,9544
2017-04-12T10:50:44.411Z,9932
2017-04-12T10:52:07.171Z,8164
2017-04-12T10:53:29.629Z,7020
2017-04-12T10:54:51.789Z,7640
2017-04-12T10:56:14.083Z,8524
2017-04-12T10:57:36.518Z,7332
2017-04-12T10:58:58.346Z,6164
2017-04-12T11:00:20.524Z,6128
2017-04-12T11:01:42.678Z,5552
2017-04-12T11:03:04.827Z,4996
2017-04-12T11:04:26.341Z,5796
2017-04-12T11:05:48.870Z,5128
2017-04-12T11:07:10.713Z,5904
2017-04-12T11:08:32.915Z,6056
2017-04-12T11:09:55.386Z,6108
2017-04-12T11:11:17.853Z,4996
2017-04-12T11:12:39.711Z,5440
2017-04-12T11:14:02.108Z,5912
2017-04-12T11:15:23.968Z,4884
2017-04-12T11:16:45.803Z,5504
2017-04-12T11:18:07.616Z,5476
2017-04-12T11:19:30.396Z,5584
2017-04-12T11:20:52.206Z,5332
2017-04-12T11:22:14.449Z,5144
2017-04-12T11:23:36.926Z,4816
2017-04-12T11:24:59.743Z,5444
2017-04-12T11:26:22.283Z,5308
2017-04-12T11:27:44.218Z,5472
2017-04-12T11:29:06.705Z,4516
2017-04-12T11:30:29.192Z,4800
2017-04-12T11:31:51.684Z,5344
2017-04-12T11:33:13.520Z,4792
2017-04-12T11:34:35.987Z,4856
2017-04-12T11:35:58.717Z,4404
2017-04-12T11:37:20.890Z,4468
2017-04-12T11:38:42.805Z,5104
2017-04-12T11:40:04.949Z,7004
2017-04-12T11:41:27.677Z,6316
2017-04-12T11:42:49.516Z,6448
2017-04-12T11:44:11.073Z,5692
2017-04-12T11:45:33.185Z,5020
2017-04-12T11:46:55.349Z,5628
2017-04-12T11:48:16.882Z,6352
2017-04-12T11:49:39.419Z,6236
2017-04-12T11:51:01.228Z,7360
2017-04-12T11:52:23.099Z,7348
2017-04-12T11:53:45.269Z,7284
2017-04-12T11:55:07.747Z,6620
2017-04-12T11:56:30.218Z,6044
2017-04-12T11:57:52.689Z,5488
2017-04-12T11:59:15.185Z,4792
2017-04-12T12:00:37.340Z,4712
2017-04-12T12:01:59.186Z,3912
2017-04-12T12:03:21.787Z,3724
2017-04-12T12:04:43.644Z,3560
2017-04-12T12:06:05.215Z,3684
2017-04-12T12:07:27.448Z,3612
2017-04-12T12:08:48.894Z,3872
2017-04-12T12:10:11.064Z,3872
2017-04-12T12:11:32.585Z,3768
2017-04-12T12:12:54.814Z,3780
2017-04-12T12:14:16.639Z,4016
2017-04-12T12:15:38.159Z,4056
2017-04-12T12:17:00.614Z,4188
2017-04-12T12:18:22.478Z,5296
2017-04-12T12:19:45.395Z,4968
2017-04-12T12:21:07.272Z,4776
2017-04-12T12:22:29.455Z,4920
2017-04-12T12:23:51.288Z,5180
2017-04-12T12:25:13.430Z,5456
2017-04-12T12:26:35.255Z,6148
2017-04-12T12:27:57.451Z,6796
2017-04-12T12:29:18.983Z,7044
2017-04-12T12:30:41.666Z,7016
2017-04-12T12:32:04.178Z,6780
2017-04-12T12:33:26.033Z,6428
2017-04-12T12:34:48.515Z,5932
2017-04-12T12:36:11.365Z,6708
2017-04-12T12:37:33.529Z,7392
2017-04-12T12:38:55.742Z,8068
2017-04-12T12:40:17.973Z,8212
2017-04-12T12:41:39.742Z,8192
2017-04-12T12:43:01.886Z,7924
2017-04-12T12:44:23.507Z,7444
2017-04-12T12:45:45.017Z,6984
2017-04-12T12:47:07.427Z,6664
2017-04-12T12:48:29.626Z,6908
2017-04-12T12:49:50.524Z,6776
2017-04-12T12:51:12.057Z,5868
2017-04-12T12:52:34.184Z,5484
2017-04-12T12:53:56.027Z,5484
2017-04-12T12:55:18.237Z,5804
2017-04-12T12:56:39.838Z,6108
2017-04-12T12:58:02.391Z,6216
2017-04-12T12:59:24.918Z,6008
2017-04-12T13:00:46.887Z,6352
2017-04-12T13:02:09.367Z,6836
2017-04-12T13:03:32.086Z,7796
2017-04-12T13:04:53.932Z,8896
2017-04-12T13:06:15.459Z,9520
2017-04-12T13:07:37.007Z,10124
2017-04-12T13:08:59.576Z,10272
2017-04-12T13:10:21.752Z,9452
2017-04-12T13:11:43.915Z,7744
2017-04-12T13:13:05.786Z,6628
2017-04-12T13:14:28.249Z,5608
2017-04-12T13:15:50.323Z,5668
2017-04-12T13:17:11.819Z,5528
2017-04-12T13:18:33.839Z,4872
2017-04-12T13:19:56.577Z,4736
2017-04-12T13:21:18.834Z,4932
2017-04-12T13:22:41.067Z,5036
2017-04-12T13:24:03.226Z,4976
2017-04-12T13:25:25.701Z,5212
2017-04-12T13:26:47.924Z,5088
2017-04-12T13:28:10.119Z,5836
2017-04-12T13:29:31.966Z,5928
2017-04-12T13:30:54.109Z,6224
2017-04-12T13:32:16.599Z,6176
2017-04-12T13:33:39.229Z,6336
2017-04-12T13:35:01.719Z,6408
2017-04-12T13:36:24.659Z,7016
2017-04-12T13:37:46.836Z,6880
2017-04-12T13:39:08.480Z,6560
2017-04-12T13:40:30.966Z,6212
2017-04-12T13:41:53.424Z,5716
2017-04-12T13:43:14.676Z,5724
2017-04-12T13:44:36.202Z,5312
2017-04-12T13:45:58.060Z,5644
2017-04-12T13:47:20.550Z,5960
2017-04-12T13:48:42.700Z,5768
2017-04-12T13:50:04.867Z,5424
2017-04-12T13:51:27.122Z,4844
2017-04-12T13:52:49.226Z,4416
2017-04-12T13:54:11.411Z,3884
2017-04-12T13:55:32.678Z,3856
2017-04-12T13:56:54.940Z,3976
2017-04-12T13:58:17.389Z,4432
2017-04-12T13:59:39.556Z,5488
2017-04-12T14:01:01.118Z,5552
2017-04-12T14:02:23.298Z,5412
2017-04-12T14:03:46.058Z,5780
2017-04-12T14:05:08.219Z,6884
2017-04-12T14:06:29.748Z,7728
2017-04-12T14:07:51.809Z,7224
2017-04-12T14:09:13.907Z,7340
2017-04-12T14:10:36.101Z,6716
2017-04-12T14:11:58.248Z,6784
2017-04-12T14:13:20.833Z,6180
2017-04-12T14:14:43.619Z,6420
2017-04-12T14:16:06.107Z,6252
2017-04-12T14:17:28.264Z,5352
2017-04-12T14:18:50.458Z,5392
2017-04-12T14:20:12.767Z,5512
2017-04-12T14:21:35.327Z,5980
2017-04-12T14:22:57.511Z,7016
2017-04-12T14:24:19.976Z,6544
2017-04-12T14:25:42.419Z,6972
2017-04-12T14:27:04.565Z,7148
2017-04-12T14:28:26.527Z,6840
2017-04-12T14:29:48.548Z,7852
2017-04-12T14:31:11.389Z,8740
2017-04-12T14:32:33.888Z,8712
2017-04-12T14:33:56.358Z,9204
2017-04-12T14:35:18.849Z,9056
2017-04-12T14:36:41.747Z,8176
2017-04-12T14:38:03.318Z,7612
2017-04-12T14:39:25.486Z,6912
2017-04-12T14:40:47.652Z,7828
2017-04-12T14:42:09.964Z,8588
2017-04-12T14:43:31.482Z,7240
2017-04-12T14:44:53.362Z,7872
2017-04-12T14:46:15.656Z,7092
2017-04-12T14:47:38.106Z,7148
2017-04-12T14:49:00.267Z,8236
2017-04-12T14:50:22.757Z,8172
2017-04-12T14:51:44.931Z,7688
2017-04-12T14:53:07.820Z,7328
2017-04-12T14:54:30.065Z,7524
2017-04-12T14:55:52.246Z,7904
2017-04-12T14:57:14.757Z,7236
2017-04-12T14:58:37.229Z,6976
2017-04-12T14:59:59.168Z,6080
2017-04-12T15:01:20.709Z,6264
2017-04-12T15:02:43.199Z,6772
2017-04-12T15:04:05.536Z,6968
2017-04-12T15:05:27.729Z,7320
2017-04-12T15:06:50.233Z,6872
2017-04-12T15:08:12.745Z,7308
2017-04-12T15:09:35.526Z,6640
2017-04-12T15:10:57.043Z,7392
2017-04-12T15:12:19.354Z,8888
2017-04-12T15:13:40.881Z,10000
2017-04-12T15:15:03.199Z,9952
2017-04-12T15:16:25.411Z,10140
2017-04-12T15:17:46.958Z,10280
2017-04-12T15:19:09.774Z,8144
2017-04-12T15:20:31.605Z,6692
2017-04-12T15:21:53.676Z,8376
2017-04-12T15:23:15.546Z,6768
2017-04-12T15:24:37.225Z,6364
2017-04-12T15:25:59.060Z,7052
2017-04-12T15:27:21.712Z,7324
2017-04-12T15:28:44.205Z,7976
2017-04-12T15:30:06.368Z,8624
2017-04-12T15:31:28.989Z,9484
2017-04-12T15:32:51.137Z,10196
2017-04-12T15:34:13.397Z,10004
2017-04-12T15:35:35.930Z,11276
2017-04-12T15:36:58.067Z,11656
2017-04-12T15:38:19.917Z,11892
2017-04-12T15:39:42.073Z,10828
2017-04-12T15:41:04.597Z,8624
2017-04-12T15:42:27.135Z,6728
2017-04-12T15:43:49.733Z,6956
2017-04-12T15:45:11.328Z,4672
2017-04-12T15:46:33.510Z,4600
2017-04-12T15:47:56.370Z,3372
2017-04-12T15:49:18.949Z,2884
2017-04-12T15:50:41.132Z,3320
2017-04-12T15:52:03.336Z,2900
2017-04-12T15:53:25.825Z,2712
2017-04-12T15:54:48.320Z,4448
2017-04-12T15:56:10.170Z,3336
2017-04-12T15:57:32.025Z,3188
2017-04-12T15:58:54.754Z,4408
2017-04-12T16:00:17.290Z,3620
2017-04-12T16:01:39.778Z,3640
2017-04-12T16:03:01.948Z,3072
2017-04-12T16:04:24.527Z,2888
2017-04-12T16:05:46.710Z,2804
2017-04-12T16:07:08.238Z,3288
2017-04-12T16:08:30.396Z,2652
2017-04-12T16:09:52.578Z,3112
2017-04-12T16:11:14.184Z,2824
2017-04-12T16:12:36.703Z,1908
2017-04-12T16:13:58.878Z,2068
2017-04-12T16:15:20.988Z,1972
2017-04-12T16:16:42.836Z,2824
2017-04-12T16:18:04.387Z,2568
2017-04-12T16:19:26.046Z,2768
2017-04-12T16:20:48.837Z,3888
2017-04-12T16:22:11.453Z,4272
2017-04-12T16:23:33.300Z,3716
2017-04-12T16:24:55.466Z,2768
2017-04-12T16:26:17.930Z,4452
2017-04-12T16:27:40.195Z,4588
2017-04-12T16:29:02.686Z,3920
2017-04-12T16:30:25.326Z,5256
2017-04-12T16:31:47.145Z,4204
2017-04-12T16:33:09.600Z,4956
2017-04-12T16:34:32.117Z,4460
2017-04-12T16:35:54.091Z,4368
2017-04-12T16:37:16.278Z,4656
2017-04-12T16:38:38.429Z,3520
2017-04-12T16:40:00.688Z,3496
2017-04-12T16:41:23.192Z,3500
2017-04-12T16:42:45.645Z,3580
2017-04-12T16:44:07.816Z,3052
2017-04-12T16:45:30.407Z,1680
2017-04-12T16:46:52.899Z,1464
2017-04-12T16:48:15.879Z,1268
2017-04-12T16:49:37.750Z,1120
2017-04-12T16:50:59.984Z,928
2017-04-12T16:52:22.166Z,2024
2017-04-12T16:53:43.957Z,1992
2017-04-12T16:55:06.117Z,1740
2017-04-12T16:56:28.331Z,1928
2017-04-12T16:57:50.847Z,1724
2017-04-12T16:59:13.457Z,1540
2017-04-12T17:00:36.139Z,2172
2017-04-12T17:01:58.394Z,1468
2017-04-12T17:03:20.248Z,1000
2017-04-12T17:04:43.034Z,708
2017-04-12T17:06:05.418Z,696
2017-04-12T17:07:27.341Z,764
2017-04-12T17:08:49.597Z,540
2017-04-12T17:10:12.330Z,496
2017-04-12T17:11:34.533Z,784
2017-04-12T17:12:57.046Z,1160
2017-04-12T17:14:19.270Z,764
2017-04-12T17:15:41.456Z,660
2017-04-12T17:17:04.037Z,460
2017-04-12T17:18:26.227Z,468
2017-04-12T17:19:48.415Z,420
2017-04-12T17:21:10.897Z,316
2017-04-12T17:22:33.068Z,348
2017-04-12T17:23:55.450Z,752
2017-04-12T17:25:17.665Z,448
2017-04-12T17:26:40.731Z,408
2017-04-12T17:28:02.602Z,272
2017-04-12T17:29:24.826Z,216
2017-04-12T17:30:47.038Z,232
2017-04-12T17:32:09.886Z,260
2017-04-12T17:33:32.156Z,268
2017-04-12T17:34:54.726Z,624
2017-04-12T17:36:17.223Z,892
2017-04-12T17:37:40.060Z,1328
2017-04-12T17:39:01.920Z,1200
2017-04-12T17:40:24.134Z,892
2017-04-12T17:41:46.623Z,644
2017-04-12T17:43:08.849Z,536
2017-04-12T17:44:31.367Z,500
2017-04-12T17:45:53.537Z,608
2017-04-12T17:47:15.716Z,352
2017-04-12T17:48:38.538Z,344
2017-04-12T17:50:00.876Z,368
2017-04-12T17:51:23.537Z,464
2017-04-12T17:52:45.748Z,552
2017-04-12T17:54:08.579Z,620
2017-04-12T17:55:30.907Z,656
2017-04-12T17:56:53.299Z,680
2017-04-12T17:58:15.459Z,664
2017-04-12T17:59:37.949Z,584
2017-04-12T18:00:59.505Z,504
2017-04-12T18:02:21.383Z,460
2017-04-12T18:03:43.561Z,400
2017-04-12T18:05:06.097Z,324
2017-04-12T18:06:27.958Z,256
2017-04-12T18:07:49.817Z,232
2017-04-12T18:09:12.331Z,224
2017-04-12T18:10:34.533Z,228
2017-04-12T18:11:56.738Z,236
2017-04-12T18:13:19.322Z,260
2017-04-12T18:14:41.268Z,268
2017-04-12T18:16:04.037Z,240
2017-04-12T18:17:26.352Z,188
2017-04-12T18:18:48.661Z,164
2017-04-12T18:20:11.327Z,140
2017-04-12T18:21:34.407Z,120
2017-04-12T18:22:56.805Z,120
2017-04-12T18:24:19.289Z,64
2017-04-12T18:25:41.535Z,56
2017-04-12T18:27:04.007Z,40
2017-04-12T18:28:26.500Z,32
2017-04-12T18:29:49.011Z,20
2017-04-12T18:31:11.500Z,16
2017-04-12T18:32:33.999Z,12
2017-04-12T18:33:55.856Z,12
2017-04-12T18:35:18.407Z,12
2017-04-12T18:36:40.898Z,8
2017-04-12T18:38:03.415Z,8
2017-04-12T18:39:25.655Z,8
2017-04-12T18:40:48.230Z,4
2017-04-12T18:42:10.185Z,4